Hauptseite
METAR-TAF:

METAR-TAF

Flughäfen :

Saint-Brieuc, Frankreich

Flughafen Saint Brieuc

Breite: 48-32N, Länge: 002-51W, Höhe: 138 m

Beobachtung

Neuester Wetterbericht von vor 38 Minuten, um 08:30 UTC
Wind 6 kt aus Nordwest, variierte zwischen West und Nord/Nordwest
Temperatur 11°C
Luftfeuchtigkeit 71%
Luftdruck 1021 hPa
Sichtweite 10 km oder mehr
Leicht bewölkt in der Höhe von 2300 ft
Geschlossene Wolkendecke in der Höhe von 2900 ft

METAR: LFRT 230830Z AUTO 31006KT 280V340 9999 FEW023 OVC029 11/06 Q1021

Zeit: 11:08 (09:08 UTC)


TAF: fehlend

Wetterbeobachtungen und Prognosen von mehr als 4000 Flughäfen (METAR und TAF Bericht).

Die verfügbaren Stationen werden durch gelbe und rote Markierungen auf der Karte dargestellt.

Führen Sie die Maus auf sie, um den Namen der Station zu sehen.

Darauf klicken, um die Beobachtung von Wetterbeobachtungen und Prognosen zu sehen.

Um die Karte zu ändern : klicken Sie auf den grünen Tasten mit einem schwarzen Kreuz Zum Vergrößern, auf den grünen Button mit einem Gedankenstrich zu verkleinern, oder auf die grünen Pfeile für benachbarte Karten.


METAR-TAF: